sensor_id;sensor_type;location;lat;lon;timestamp;temperature;humidity
35381;DHT22;21486;51.916;8.378;2023-10-09T00:00:51;11.80;99.90
35381;DHT22;21486;51.916;8.378;2023-10-09T00:03:17;11.80;99.90
35381;DHT22;21486;51.916;8.378;2023-10-09T00:05:44;11.80;99.90
35381;DHT22;21486;51.916;8.378;2023-10-09T00:08:13;11.70;99.90
35381;DHT22;21486;51.916;8.378;2023-10-09T00:10:46;11.80;99.90
35381;DHT22;21486;51.916;8.378;2023-10-09T00:13:21;11.90;99.90
35381;DHT22;21486;51.916;8.378;2023-10-09T00:15:55;11.90;99.90
35381;DHT22;21486;51.916;8.378;2023-10-09T00:18:26;12.10;99.90
35381;DHT22;21486;51.916;8.378;2023-10-09T00:20:55;12.10;99.90
35381;DHT22;21486;51.916;8.378;2023-10-09T00:23:26;12.00;99.90
35381;DHT22;21486;51.916;8.378;2023-10-09T00:25:52;12.10;99.90
35381;DHT22;21486;51.916;8.378;2023-10-09T00:28:36;12.20;99.90
35381;DHT22;21486;51.916;8.378;2023-10-09T00:31:05;12.20;99.90
35381;DHT22;21486;51.916;8.378;2023-10-09T00:33:36;12.20;99.90
35381;DHT22;21486;51.916;8.378;2023-10-09T00:36:03;12.20;99.90
35381;DHT22;21486;51.916;8.378;2023-10-09T00:38:34;12.20;99.90
35381;DHT22;21486;51.916;8.378;2023-10-09T00:41:00;12.20;99.90
35381;DHT22;21486;51.916;8.378;2023-10-09T00:43:32;12.10;99.90
35381;DHT22;21486;51.916;8.378;2023-10-09T00:46:01;12.10;99.90
35381;DHT22;21486;51.916;8.378;2023-10-09T00:48:33;12.20;99.90
35381;DHT22;21486;51.916;8.378;2023-10-09T00:51:04;12.10;99.90
35381;DHT22;21486;51.916;8.378;2023-10-09T00:53:45;12.20;99.90
35381;DHT22;21486;51.916;8.378;2023-10-09T00:56:15;12.10;99.90
35381;DHT22;21486;51.916;8.378;2023-10-09T00:58:45;12.10;99.90
35381;DHT22;21486;51.916;8.378;2023-10-09T01:01:12;12.10;99.90
35381;DHT22;21486;51.916;8.378;2023-10-09T01:03:41;12.10;99.90
35381;DHT22;21486;51.916;8.378;2023-10-09T01:06:07;12.10;99.90
35381;DHT22;21486;51.916;8.378;2023-10-09T01:08:37;12.00;99.90
35381;DHT22;21486;51.916;8.378;2023-10-09T01:11:15;12.10;99.90
35381;DHT22;21486;51.916;8.378;2023-10-09T01:13:46;12.00;99.90
35381;DHT22;21486;51.916;8.378;2023-10-09T01:16:12;12.00;99.90
35381;DHT22;21486;51.916;8.378;2023-10-09T01:18:47;12.00;99.90
35381;DHT22;21486;51.916;8.378;2023-10-09T01:21:16;12.00;99.90
35381;DHT22;21486;51.916;8.378;2023-10-09T01:23:43;12.00;99.90
35381;DHT22;21486;51.916;8.378;2023-10-09T01:26:24;12.00;99.90
35381;DHT22;21486;51.916;8.378;2023-10-09T01:28:50;12.00;99.90
35381;DHT22;21486;51.916;8.378;2023-10-09T01:31:15;12.00;99.90
35381;DHT22;21486;51.916;8.378;2023-10-09T01:33:41;12.10;99.90
35381;DHT22;21486;51.916;8.378;2023-10-09T01:36:07;12.10;99.90
35381;DHT22;21486;51.916;8.378;2023-10-09T01:38:34;12.10;99.90
35381;DHT22;21486;51.916;8.378;2023-10-09T01:41:12;12.10;99.90
35381;DHT22;21486;51.916;8.378;2023-10-09T01:43:41;12.10;99.90
35381;DHT22;21486;51.916;8.378;2023-10-09T01:46:10;12.20;99.90
35381;DHT22;21486;51.916;8.378;2023-10-09T01:48:36;12.20;99.90
35381;DHT22;21486;51.916;8.378;2023-10-09T01:51:05;12.20;99.90
35381;DHT22;21486;51.916;8.378;2023-10-09T01:53:30;12.20;99.90
35381;DHT22;21486;51.916;8.378;2023-10-09T01:56:07;12.30;99.90
35381;DHT22;21486;51.916;8.378;2023-10-09T01:58:33;12.30;99.90
35381;DHT22;21486;51.916;8.378;2023-10-09T02:00:58;12.20;99.90
35381;DHT22;21486;51.916;8.378;2023-10-09T02:03:27;12.30;99.90
35381;DHT22;21486;51.916;8.378;2023-10-09T02:05:54;12.40;99.90
35381;DHT22;21486;51.916;8.378;2023-10-09T02:08:30;12.30;99.90
35381;DHT22;21486;51.916;8.378;2023-10-09T02:10:56;12.40;99.90
35381;DHT22;21486;51.916;8.378;2023-10-09T02:13:22;12.40;99.90
35381;DHT22;21486;51.916;8.378;2023-10-09T02:15:57;12.50;99.90
35381;DHT22;21486;51.916;8.378;2023-10-09T02:18:40;12.50;99.90
35381;DHT22;21486;51.916;8.378;2023-10-09T02:21:17;12.50;99.90
35381;DHT22;21486;51.916;8.378;2023-10-09T02:23:53;12.60;99.90
35381;DHT22;21486;51.916;8.378;2023-10-09T02:26:22;12.60;99.90
35381;DHT22;21486;51.916;8.378;2023-10-09T02:28:53;12.60;99.90
35381;DHT22;21486;51.916;8.378;2023-10-09T02:31:25;12.60;99.90
35381;DHT22;21486;51.916;8.378;2023-10-09T02:33:53;12.60;99.90
35381;DHT22;21486;51.916;8.378;2023-10-09T02:36:23;12.60;99.90
35381;DHT22;21486;51.916;8.378;2023-10-09T02:38:49;12.60;99.90
35381;DHT22;21486;51.916;8.378;2023-10-09T02:41:18;12.60;99.90
35381;DHT22;21486;51.916;8.378;2023-10-09T02:43:45;12.60;99.90
35381;DHT22;21486;51.916;8.378;2023-10-09T02:46:21;12.60;99.90
35381;DHT22;21486;51.916;8.378;2023-10-09T02:48:54;12.60;99.90
35381;DHT22;21486;51.916;8.378;2023-10-09T02:51:22;12.70;99.90
35381;DHT22;21486;51.916;8.378;2023-10-09T02:53:54;12.70;99.90
35381;DHT22;21486;51.916;8.378;2023-10-09T02:56:21;12.70;99.90
35381;DHT22;21486;51.916;8.378;2023-10-09T02:58:53;12.70;99.90
35381;DHT22;21486;51.916;8.378;2023-10-09T03:01:18;12.70;99.90
35381;DHT22;21486;51.916;8.378;2023-10-09T03:03:44;12.70;99.90
35381;DHT22;21486;51.916;8.378;2023-10-09T03:06:14;12.70;99.90
35381;DHT22;21486;51.916;8.378;2023-10-09T03:08:44;12.70;99.90
35381;DHT22;21486;51.916;8.378;2023-10-09T03:11:12;12.70;99.90
35381;DHT22;21486;51.916;8.378;2023-10-09T03:13:40;12.70;99.90
35381;DHT22;21486;51.916;8.378;2023-10-09T03:16:08;12.70;99.90
35381;DHT22;21486;51.916;8.378;2023-10-09T03:18:34;12.70;99.90
35381;DHT22;21486;51.916;8.378;2023-10-09T03:21:02;12.70;99.90
35381;DHT22;21486;51.916;8.378;2023-10-09T03:23:27;12.70;99.90
35381;DHT22;21486;51.916;8.378;2023-10-09T03:25:55;12.70;99.90
35381;DHT22;21486;51.916;8.378;2023-10-09T03:28:21;12.80;99.90
35381;DHT22;21486;51.916;8.378;2023-10-09T03:30:46;12.80;99.90
35381;DHT22;21486;51.916;8.378;2023-10-09T03:33:13;12.80;99.90
35381;DHT22;21486;51.916;8.378;2023-10-09T03:35:38;12.90;99.90
35381;DHT22;21486;51.916;8.378;2023-10-09T03:38:04;12.80;99.90
35381;DHT22;21486;51.916;8.378;2023-10-09T03:40:43;12.80;99.90
35381;DHT22;21486;51.916;8.378;2023-10-09T03:43:09;12.80;99.90
35381;DHT22;21486;51.916;8.378;2023-10-09T03:45:36;12.80;99.90
35381;DHT22;21486;51.916;8.378;2023-10-09T03:48:04;12.90;99.90
35381;DHT22;21486;51.916;8.378;2023-10-09T03:50:48;12.90;99.90
35381;DHT22;21486;51.916;8.378;2023-10-09T03:53:14;13.00;99.90
35381;DHT22;21486;51.916;8.378;2023-10-09T03:55:39;13.00;99.90
35381;DHT22;21486;51.916;8.378;2023-10-09T03:58:06;12.90;99.90
35381;DHT22;21486;51.916;8.378;2023-10-09T04:00:31;12.90;99.90
35381;DHT22;21486;51.916;8.378;2023-10-09T04:03:00;12.90;99.90
35381;DHT22;21486;51.916;8.378;2023-10-09T04:05:26;12.90;99.90
35381;DHT22;21486;51.916;8.378;2023-10-09T04:07:51;12.90;99.90
35381;DHT22;21486;51.916;8.378;2023-10-09T04:10:20;12.90;99.90
35381;DHT22;21486;51.916;8.378;2023-10-09T04:13:04;12.80;99.90
35381;DHT22;21486;51.916;8.378;2023-10-09T04:15:34;12.70;99.90
35381;DHT22;21486;51.916;8.378;2023-10-09T04:18:01;12.70;99.90
35381;DHT22;21486;51.916;8.378;2023-10-09T04:20:26;12.70;99.90
35381;DHT22;21486;51.916;8.378;2023-10-09T04:22:58;12.70;99.90
35381;DHT22;21486;51.916;8.378;2023-10-09T04:25:31;12.70;99.90
35381;DHT22;21486;51.916;8.378;2023-10-09T04:28:10;12.80;99.90
35381;DHT22;21486;51.916;8.378;2023-10-09T04:30:47;12.80;99.90
35381;DHT22;21486;51.916;8.378;2023-10-09T04:33:21;12.90;99.90
35381;DHT22;21486;51.916;8.378;2023-10-09T04:36:10;12.90;99.90
35381;DHT22;21486;51.916;8.378;2023-10-09T04:38:47;13.00;99.90
35381;DHT22;21486;51.916;8.378;2023-10-09T04:41:28;13.00;99.90
35381;DHT22;21486;51.916;8.378;2023-10-09T04:43:57;13.10;99.90
35381;DHT22;21486;51.916;8.378;2023-10-09T04:46:47;13.10;99.90
35381;DHT22;21486;51.916;8.378;2023-10-09T04:49:32;13.10;99.90
35381;DHT22;21486;51.916;8.378;2023-10-09T04:52:11;13.30;99.90
35381;DHT22;21486;51.916;8.378;2023-10-09T04:54:45;13.30;99.90
35381;DHT22;21486;51.916;8.378;2023-10-09T04:57:29;13.40;99.90
35381;DHT22;21486;51.916;8.378;2023-10-09T04:59:54;13.50;99.90
35381;DHT22;21486;51.916;8.378;2023-10-09T05:02:24;13.50;99.90
35381;DHT22;21486;51.916;8.378;2023-10-09T05:04:49;13.60;99.90
35381;DHT22;21486;51.916;8.378;2023-10-09T05:07:34;13.60;99.90
35381;DHT22;21486;51.916;8.378;2023-10-09T05:10:20;13.70;99.90
35381;DHT22;21486;51.916;8.378;2023-10-09T05:12:50;13.80;99.90
35381;DHT22;21486;51.916;8.378;2023-10-09T05:15:23;13.80;99.90
35381;DHT22;21486;51.916;8.378;2023-10-09T05:17:52;13.80;99.90
35381;DHT22;21486;51.916;8.378;2023-10-09T05:20:24;13.80;99.90
35381;DHT22;21486;51.916;8.378;2023-10-09T05:22:53;13.70;99.90
35381;DHT22;21486;51.916;8.378;2023-10-09T05:25:40;13.70;99.90
35381;DHT22;21486;51.916;8.378;2023-10-09T05:28:24;13.70;99.90
35381;DHT22;21486;51.916;8.378;2023-10-09T05:31:08;13.70;99.90
35381;DHT22;21486;51.916;8.378;2023-10-09T05:33:34;13.70;99.90
35381;DHT22;21486;51.916;8.378;2023-10-09T05:36:05;13.60;99.90
35381;DHT22;21486;51.916;8.378;2023-10-09T05:38:42;13.60;99.90
35381;DHT22;21486;51.916;8.378;2023-10-09T05:41:20;13.60;99.90
35381;DHT22;21486;51.916;8.378;2023-10-09T05:44:04;13.50;99.90
35381;DHT22;21486;51.916;8.378;2023-10-09T05:46:48;13.50;99.90
35381;DHT22;21486;51.916;8.378;2023-10-09T05:49:33;13.50;99.90
35381;DHT22;21486;51.916;8.378;2023-10-09T05:52:14;13.50;99.90
35381;DHT22;21486;51.916;8.378;2023-10-09T05:55:22;13.60;99.90
35381;DHT22;21486;51.916;8.378;2023-10-09T05:57:50;13.60;99.90
35381;DHT22;21486;51.916;8.378;2023-10-09T06:00:28;13.60;99.90
35381;DHT22;21486;51.916;8.378;2023-10-09T06:03:13;13.60;99.90
35381;DHT22;21486;51.916;8.378;2023-10-09T06:05:53;13.60;99.90
35381;DHT22;21486;51.916;8.378;2023-10-09T06:08:22;13.60;99.90
35381;DHT22;21486;51.916;8.378;2023-10-09T06:11:12;13.60;99.90
35381;DHT22;21486;51.916;8.378;2023-10-09T06:13:57;13.60;99.90
35381;DHT22;21486;51.916;8.378;2023-10-09T06:16:35;13.70;99.90
35381;DHT22;21486;51.916;8.378;2023-10-09T06:19:07;13.70;99.90
35381;DHT22;21486;51.916;8.378;2023-10-09T06:21:34;13.70;99.90
35381;DHT22;21486;51.916;8.378;2023-10-09T06:24:18;13.70;99.90
35381;DHT22;21486;51.916;8.378;2023-10-09T06:26:44;13.70;99.90
35381;DHT22;21486;51.916;8.378;2023-10-09T06:29:25;13.80;99.90
35381;DHT22;21486;51.916;8.378;2023-10-09T06:32:00;13.80;99.90
35381;DHT22;21486;51.916;8.378;2023-10-09T06:34:47;13.80;99.90
35381;DHT22;21486;51.916;8.378;2023-10-09T06:37:17;13.80;99.90
35381;DHT22;21486;51.916;8.378;2023-10-09T06:39:44;13.80;99.90
35381;DHT22;21486;51.916;8.378;2023-10-09T06:42:36;13.90;99.90
35381;DHT22;21486;51.916;8.378;2023-10-09T06:45:08;14.00;99.90
35381;DHT22;21486;51.916;8.378;2023-10-09T06:47:48;14.00;99.90
35381;DHT22;21486;51.916;8.378;2023-10-09T06:50:34;14.00;99.90
35381;DHT22;21486;51.916;8.378;2023-10-09T06:53:18;14.00;99.90
35381;DHT22;21486;51.916;8.378;2023-10-09T06:55:50;14.20;99.90
35381;DHT22;21486;51.916;8.378;2023-10-09T06:58:17;14.20;99.90
35381;DHT22;21486;51.916;8.378;2023-10-09T07:00:53;14.30;99.90
35381;DHT22;21486;51.916;8.378;2023-10-09T07:03:25;14.30;99.90
35381;DHT22;21486;51.916;8.378;2023-10-09T07:06:08;14.40;99.90
35381;DHT22;21486;51.916;8.378;2023-10-09T07:08:52;14.40;99.90
35381;DHT22;21486;51.916;8.378;2023-10-09T07:11:33;14.50;99.90
35381;DHT22;21486;51.916;8.378;2023-10-09T07:14:05;14.60;99.90
35381;DHT22;21486;51.916;8.378;2023-10-09T07:16:32;14.70;99.90
35381;DHT22;21486;51.916;8.378;2023-10-09T07:19:06;14.80;99.90
35381;DHT22;21486;51.916;8.378;2023-10-09T07:21:37;14.80;99.90
35381;DHT22;21486;51.916;8.378;2023-10-09T07:24:04;14.90;99.90
35381;DHT22;21486;51.916;8.378;2023-10-09T07:26:40;14.90;99.90
35381;DHT22;21486;51.916;8.378;2023-10-09T07:29:13;15.10;99.90
35381;DHT22;21486;51.916;8.378;2023-10-09T07:31:42;15.10;99.90
35381;DHT22;21486;51.916;8.378;2023-10-09T07:34:11;15.10;99.90
35381;DHT22;21486;51.916;8.378;2023-10-09T07:36:59;15.20;99.90
35381;DHT22;21486;51.916;8.378;2023-10-09T07:39:30;15.30;99.90
35381;DHT22;21486;51.916;8.378;2023-10-09T07:42:01;15.30;99.90
35381;DHT22;21486;51.916;8.378;2023-10-09T07:44:41;15.30;99.90
35381;DHT22;21486;51.916;8.378;2023-10-09T07:47:07;15.40;99.90
35381;DHT22;21486;51.916;8.378;2023-10-09T07:49:42;15.40;99.90
35381;DHT22;21486;51.916;8.378;2023-10-09T07:52:14;15.40;99.90
35381;DHT22;21486;51.916;8.378;2023-10-09T07:54:40;15.40;99.90
35381;DHT22;21486;51.916;8.378;2023-10-09T07:57:17;15.50;99.90
35381;DHT22;21486;51.916;8.378;2023-10-09T07:59:43;15.50;99.90
35381;DHT22;21486;51.916;8.378;2023-10-09T08:02:20;15.50;99.90
35381;DHT22;21486;51.916;8.378;2023-10-09T08:04:59;15.60;99.90
35381;DHT22;21486;51.916;8.378;2023-10-09T08:07:32;15.70;99.90
35381;DHT22;21486;51.916;8.378;2023-10-09T08:10:02;15.70;99.90
35381;DHT22;21486;51.916;8.378;2023-10-09T08:12:43;15.80;99.90
35381;DHT22;21486;51.916;8.378;2023-10-09T08:15:14;15.80;99.90
35381;DHT22;21486;51.916;8.378;2023-10-09T08:17:46;15.90;99.90
35381;DHT22;21486;51.916;8.378;2023-10-09T08:20:30;16.00;99.90
35381;DHT22;21486;51.916;8.378;2023-10-09T08:23:16;15.90;99.90
35381;DHT22;21486;51.916;8.378;2023-10-09T08:26:01;15.90;99.90
35381;DHT22;21486;51.916;8.378;2023-10-09T08:28:39;16.00;99.90
35381;DHT22;21486;51.916;8.378;2023-10-09T08:31:11;15.90;99.90
35381;DHT22;21486;51.916;8.378;2023-10-09T08:34:06;15.90;99.90
35381;DHT22;21486;51.916;8.378;2023-10-09T08:36:35;15.90;99.90
35381;DHT22;21486;51.916;8.378;2023-10-09T08:39:03;15.90;99.90
35381;DHT22;21486;51.916;8.378;2023-10-09T08:41:53;15.80;99.90
35381;DHT22;21486;51.916;8.378;2023-10-09T08:44:23;15.90;99.90
35381;DHT22;21486;51.916;8.378;2023-10-09T08:46:50;15.90;99.90
35381;DHT22;21486;51.916;8.378;2023-10-09T08:49:16;15.90;99.90
35381;DHT22;21486;51.916;8.378;2023-10-09T08:51:42;15.90;99.90
35381;DHT22;21486;51.916;8.378;2023-10-09T08:54:07;16.00;99.90
35381;DHT22;21486;51.916;8.378;2023-10-09T08:56:36;15.90;99.90
35381;DHT22;21486;51.916;8.378;2023-10-09T08:59:05;16.00;99.90
35381;DHT22;21486;51.916;8.378;2023-10-09T09:01:30;16.00;99.90
35381;DHT22;21486;51.916;8.378;2023-10-09T09:03:57;16.00;99.90
35381;DHT22;21486;51.916;8.378;2023-10-09T09:06:23;16.10;99.90
35381;DHT22;21486;51.916;8.378;2023-10-09T09:08:49;16.10;99.90
35381;DHT22;21486;51.916;8.378;2023-10-09T09:11:15;16.20;99.90
35381;DHT22;21486;51.916;8.378;2023-10-09T09:13:48;16.20;99.90
35381;DHT22;21486;51.916;8.378;2023-10-09T09:16:32;16.30;99.90
35381;DHT22;21486;51.916;8.378;2023-10-09T09:19:01;16.40;99.90
35381;DHT22;21486;51.916;8.378;2023-10-09T09:21:36;16.40;99.90
35381;DHT22;21486;51.916;8.378;2023-10-09T09:24:09;16.50;99.90
35381;DHT22;21486;51.916;8.378;2023-10-09T09:26:51;16.60;99.90
35381;DHT22;21486;51.916;8.378;2023-10-09T09:32:07;16.60;99.90
35381;DHT22;21486;51.916;8.378;2023-10-09T09:34:52;16.70;99.90
35381;DHT22;21486;51.916;8.378;2023-10-09T09:37:25;16.80;99.90
35381;DHT22;21486;51.916;8.378;2023-10-09T09:40:03;16.90;99.90
35381;DHT22;21486;51.916;8.378;2023-10-09T09:42:43;17.00;99.90
35381;DHT22;21486;51.916;8.378;2023-10-09T09:45:13;16.90;99.90
35381;DHT22;21486;51.916;8.378;2023-10-09T09:47:39;16.90;99.90
35381;DHT22;21486;51.916;8.378;2023-10-09T09:50:05;16.90;99.90
35381;DHT22;21486;51.916;8.378;2023-10-09T09:52:43;16.80;99.90
35381;DHT22;21486;51.916;8.378;2023-10-09T09:55:09;16.80;99.90
35381;DHT22;21486;51.916;8.378;2023-10-09T09:57:46;16.90;99.90
35381;DHT22;21486;51.916;8.378;2023-10-09T10:00:16;16.90;99.90
35381;DHT22;21486;51.916;8.378;2023-10-09T10:03:06;16.90;99.90
35381;DHT22;21486;51.916;8.378;2023-10-09T10:05:33;16.90;99.90
35381;DHT22;21486;51.916;8.378;2023-10-09T10:07:59;16.80;99.90
35381;DHT22;21486;51.916;8.378;2023-10-09T10:10:35;16.80;99.90
35381;DHT22;21486;51.916;8.378;2023-10-09T10:13:15;16.80;99.90
35381;DHT22;21486;51.916;8.378;2023-10-09T10:16:08;16.90;99.90
35381;DHT22;21486;51.916;8.378;2023-10-09T10:18:57;16.90;99.90
35381;DHT22;21486;51.916;8.378;2023-10-09T10:21:35;17.00;99.90
35381;DHT22;21486;51.916;8.378;2023-10-09T10:24:40;17.10;99.90
35381;DHT22;21486;51.916;8.378;2023-10-09T10:27:14;17.10;99.90
35381;DHT22;21486;51.916;8.378;2023-10-09T10:35:16;17.30;99.90
35381;DHT22;21486;51.916;8.378;2023-10-09T10:37:45;17.30;99.90
35381;DHT22;21486;51.916;8.378;2023-10-09T10:40:26;17.50;99.90
35381;DHT22;21486;51.916;8.378;2023-10-09T10:43:06;17.40;99.90
35381;DHT22;21486;51.916;8.378;2023-10-09T10:45:35;17.30;99.90
35381;DHT22;21486;51.916;8.378;2023-10-09T10:48:01;17.20;99.90
35381;DHT22;21486;51.916;8.378;2023-10-09T10:50:32;17.20;99.90
35381;DHT22;21486;51.916;8.378;2023-10-09T10:53:15;17.10;99.90
35381;DHT22;21486;51.916;8.378;2023-10-09T10:56:00;17.20;99.90
35381;DHT22;21486;51.916;8.378;2023-10-09T10:58:41;17.20;99.90
35381;DHT22;21486;51.916;8.378;2023-10-09T11:01:33;17.30;99.90
35381;DHT22;21486;51.916;8.378;2023-10-09T11:04:17;17.30;99.90
35381;DHT22;21486;51.916;8.378;2023-10-09T11:06:55;17.30;99.90
35381;DHT22;21486;51.916;8.378;2023-10-09T11:12:22;17.20;99.90
35381;DHT22;21486;51.916;8.378;2023-10-09T11:14:49;17.20;99.90
35381;DHT22;21486;51.916;8.378;2023-10-09T11:18:05;17.30;99.90
35381;DHT22;21486;51.916;8.378;2023-10-09T11:20:52;17.20;99.90
35381;DHT22;21486;51.916;8.378;2023-10-09T11:23:41;17.20;99.90
35381;DHT22;21486;51.916;8.378;2023-10-09T11:26:23;17.20;99.90
35381;DHT22;21486;51.916;8.378;2023-10-09T11:29:09;17.10;99.90
35381;DHT22;21486;51.916;8.378;2023-10-09T11:32:15;17.10;99.90
35381;DHT22;21486;51.916;8.378;2023-10-09T11:34:44;17.20;99.90
35381;DHT22;21486;51.916;8.378;2023-10-09T11:37:17;17.20;99.90
35381;DHT22;21486;51.916;8.378;2023-10-09T11:39:58;17.20;99.90
35381;DHT22;21486;51.916;8.378;2023-10-09T11:42:25;17.40;99.90
35381;DHT22;21486;51.916;8.378;2023-10-09T11:45:19;17.40;99.90
35381;DHT22;21486;51.916;8.378;2023-10-09T11:47:48;17.30;99.90
35381;DHT22;21486;51.916;8.378;2023-10-09T11:50:41;17.20;99.90
35381;DHT22;21486;51.916;8.378;2023-10-09T11:53:16;17.20;99.90
35381;DHT22;21486;51.916;8.378;2023-10-09T11:55:47;17.10;99.90
35381;DHT22;21486;51.916;8.378;2023-10-09T11:58:17;17.10;99.90
35381;DHT22;21486;51.916;8.378;2023-10-09T12:00:56;17.20;99.90
35381;DHT22;21486;51.916;8.378;2023-10-09T12:03:25;17.10;99.90
35381;DHT22;21486;51.916;8.378;2023-10-09T12:05:58;17.10;99.90
35381;DHT22;21486;51.916;8.378;2023-10-09T12:08:25;17.10;99.90
35381;DHT22;21486;51.916;8.378;2023-10-09T12:10:54;17.20;99.90
35381;DHT22;21486;51.916;8.378;2023-10-09T12:13:23;17.00;99.90
35381;DHT22;21486;51.916;8.378;2023-10-09T12:15:49;17.10;99.90
35381;DHT22;21486;51.916;8.378;2023-10-09T12:18:17;17.00;99.90
35381;DHT22;21486;51.916;8.378;2023-10-09T12:20:44;17.10;99.90
35381;DHT22;21486;51.916;8.378;2023-10-09T12:23:16;17.10;99.90
35381;DHT22;21486;51.916;8.378;2023-10-09T12:25:42;17.10;99.90
35381;DHT22;21486;51.916;8.378;2023-10-09T12:28:10;17.10;99.90
35381;DHT22;21486;51.916;8.378;2023-10-09T12:30:37;17.20;99.90
35381;DHT22;21486;51.916;8.378;2023-10-09T12:33:05;17.20;99.90
35381;DHT22;21486;51.916;8.378;2023-10-09T12:35:36;17.20;99.90
35381;DHT22;21486;51.916;8.378;2023-10-09T12:38:01;17.20;99.90
35381;DHT22;21486;51.916;8.378;2023-10-09T12:40:28;17.20;99.90
35381;DHT22;21486;51.916;8.378;2023-10-09T12:42:56;17.20;99.90
35381;DHT22;21486;51.916;8.378;2023-10-09T12:45:24;17.30;99.90
35381;DHT22;21486;51.916;8.378;2023-10-09T12:47:57;17.30;99.90
35381;DHT22;21486;51.916;8.378;2023-10-09T12:50:33;17.40;99.90
35381;DHT22;21486;51.916;8.378;2023-10-09T12:52:59;17.40;99.90
35381;DHT22;21486;51.916;8.378;2023-10-09T12:55:30;17.50;99.90
35381;DHT22;21486;51.916;8.378;2023-10-09T12:58:00;17.50;99.90
35381;DHT22;21486;51.916;8.378;2023-10-09T13:00:29;17.40;99.90
35381;DHT22;21486;51.916;8.378;2023-10-09T13:02:57;17.50;99.90
35381;DHT22;21486;51.916;8.378;2023-10-09T13:05:26;17.40;99.90
35381;DHT22;21486;51.916;8.378;2023-10-09T13:07:52;17.40;99.90
35381;DHT22;21486;51.916;8.378;2023-10-09T13:10:23;17.40;99.90
35381;DHT22;21486;51.916;8.378;2023-10-09T13:12:49;17.50;99.90
35381;DHT22;21486;51.916;8.378;2023-10-09T13:15:20;17.50;99.90
35381;DHT22;21486;51.916;8.378;2023-10-09T13:17:46;17.40;99.90
35381;DHT22;21486;51.916;8.378;2023-10-09T13:20:11;17.40;99.90
35381;DHT22;21486;51.916;8.378;2023-10-09T13:22:41;17.40;99.90
35381;DHT22;21486;51.916;8.378;2023-10-09T13:25:10;17.40;99.90
35381;DHT22;21486;51.916;8.378;2023-10-09T13:27:44;17.40;99.90
35381;DHT22;21486;51.916;8.378;2023-10-09T13:30:19;17.40;99.90
35381;DHT22;21486;51.916;8.378;2023-10-09T13:32:49;17.40;99.90
35381;DHT22;21486;51.916;8.378;2023-10-09T13:35:16;17.40;99.90
35381;DHT22;21486;51.916;8.378;2023-10-09T13:37:42;17.40;99.90
35381;DHT22;21486;51.916;8.378;2023-10-09T13:40:09;17.40;99.90
35381;DHT22;21486;51.916;8.378;2023-10-09T13:42:37;17.30;99.90
35381;DHT22;21486;51.916;8.378;2023-10-09T13:45:03;17.30;99.90
35381;DHT22;21486;51.916;8.378;2023-10-09T13:47:41;17.40;99.90
35381;DHT22;21486;51.916;8.378;2023-10-09T13:50:09;17.40;99.90
35381;DHT22;21486;51.916;8.378;2023-10-09T13:52:35;17.40;99.90
35381;DHT22;21486;51.916;8.378;2023-10-09T13:55:05;17.40;99.90
35381;DHT22;21486;51.916;8.378;2023-10-09T13:57:41;17.50;99.90
35381;DHT22;21486;51.916;8.378;2023-10-09T14:00:08;17.50;99.90
35381;DHT22;21486;51.916;8.378;2023-10-09T14:02:36;17.60;99.90
35381;DHT22;21486;51.916;8.378;2023-10-09T14:05:02;17.70;99.90
35381;DHT22;21486;51.916;8.378;2023-10-09T14:07:29;17.70;99.90
35381;DHT22;21486;51.916;8.378;2023-10-09T14:09:54;17.70;99.90
35381;DHT22;21486;51.916;8.378;2023-10-09T14:12:20;17.60;99.90
35381;DHT22;21486;51.916;8.378;2023-10-09T14:14:47;17.60;99.90
35381;DHT22;21486;51.916;8.378;2023-10-09T14:17:13;17.50;99.90
35381;DHT22;21486;51.916;8.378;2023-10-09T14:19:42;17.50;99.90
35381;DHT22;21486;51.916;8.378;2023-10-09T14:22:14;17.50;99.90
35381;DHT22;21486;51.916;8.378;2023-10-09T14:24:44;17.50;99.90
35381;DHT22;21486;51.916;8.378;2023-10-09T14:27:14;17.50;99.90
35381;DHT22;21486;51.916;8.378;2023-10-09T14:29:46;17.60;99.90
35381;DHT22;21486;51.916;8.378;2023-10-09T14:32:12;17.50;99.90
35381;DHT22;21486;51.916;8.378;2023-10-09T14:34:41;17.60;99.90
35381;DHT22;21486;51.916;8.378;2023-10-09T14:37:11;17.60;99.90
35381;DHT22;21486;51.916;8.378;2023-10-09T14:39:40;17.70;99.90
35381;DHT22;21486;51.916;8.378;2023-10-09T14:42:06;17.70;99.90
35381;DHT22;21486;51.916;8.378;2023-10-09T14:44:35;17.80;99.90
35381;DHT22;21486;51.916;8.378;2023-10-09T14:47:05;17.70;99.90
35381;DHT22;21486;51.916;8.378;2023-10-09T14:49:32;17.70;99.90
35381;DHT22;21486;51.916;8.378;2023-10-09T14:52:03;17.80;99.90
35381;DHT22;21486;51.916;8.378;2023-10-09T14:54:28;17.70;99.90
35381;DHT22;21486;51.916;8.378;2023-10-09T14:56:54;17.70;99.90
35381;DHT22;21486;51.916;8.378;2023-10-09T14:59:20;17.60;99.90
35381;DHT22;21486;51.916;8.378;2023-10-09T15:01:47;17.50;99.90
35381;DHT22;21486;51.916;8.378;2023-10-09T15:04:15;17.50;99.90
35381;DHT22;21486;51.916;8.378;2023-10-09T15:06:40;17.50;99.90
35381;DHT22;21486;51.916;8.378;2023-10-09T15:09:06;17.50;99.90
35381;DHT22;21486;51.916;8.378;2023-10-09T15:11:35;17.50;99.90
35381;DHT22;21486;51.916;8.378;2023-10-09T15:14:02;17.50;99.90
35381;DHT22;21486;51.916;8.378;2023-10-09T15:16:30;17.60;99.90
35381;DHT22;21486;51.916;8.378;2023-10-09T15:18:56;17.50;99.90
35381;DHT22;21486;51.916;8.378;2023-10-09T15:21:23;17.60;99.90
35381;DHT22;21486;51.916;8.378;2023-10-09T15:23:52;17.60;99.90
35381;DHT22;21486;51.916;8.378;2023-10-09T15:26:19;17.50;99.90
35381;DHT22;21486;51.916;8.378;2023-10-09T15:28:46;17.60;99.90
35381;DHT22;21486;51.916;8.378;2023-10-09T15:31:11;17.70;99.90
35381;DHT22;21486;51.916;8.378;2023-10-09T15:33:38;17.70;99.90
35381;DHT22;21486;51.916;8.378;2023-10-09T15:36:14;17.70;99.90
35381;DHT22;21486;51.916;8.378;2023-10-09T15:38:40;17.70;99.90
35381;DHT22;21486;51.916;8.378;2023-10-09T15:41:05;17.70;99.90
35381;DHT22;21486;51.916;8.378;2023-10-09T15:43:31;17.80;99.90
35381;DHT22;21486;51.916;8.378;2023-10-09T15:45:59;17.80;99.90
35381;DHT22;21486;51.916;8.378;2023-10-09T15:48:24;17.80;99.90
35381;DHT22;21486;51.916;8.378;2023-10-09T15:50:50;17.70;99.90
35381;DHT22;21486;51.916;8.378;2023-10-09T15:53:17;17.80;99.90
35381;DHT22;21486;51.916;8.378;2023-10-09T15:55:43;17.70;99.90
35381;DHT22;21486;51.916;8.378;2023-10-09T15:58:09;17.70;99.90
35381;DHT22;21486;51.916;8.378;2023-10-09T16:00:34;17.70;99.90
35381;DHT22;21486;51.916;8.378;2023-10-09T16:03:00;17.70;99.90
35381;DHT22;21486;51.916;8.378;2023-10-09T16:05:26;17.60;99.90
35381;DHT22;21486;51.916;8.378;2023-10-09T16:07:52;17.60;99.90
35381;DHT22;21486;51.916;8.378;2023-10-09T16:10:19;17.60;99.90
35381;DHT22;21486;51.916;8.378;2023-10-09T16:12:45;17.60;99.90